Time;durP1;ratioP1;P1;durP2;ratioP2;P2;SDS_P1;SDS_P2;PMS_P1;PMS_P2;Temp;Humidity;BMP_temperature;BMP_pressure;BME280_temperature;BME280_humidity;BME280_pressure;Samples;Min_cycle;Max_cycle;Signal;HPM_P1;HPM_P2
2022/04/08 00:01:27;;;;;;;16.83;14.30;;;7.10;99.90;7.00;97032.00;;;;4630893;30;88858;-55
2022/04/08 00:03:54;;;;;;;19.80;14.68;;;7.10;99.90;6.90;97011.00;;;;4633485;30;87353;-57
2022/04/08 00:06:22;;;;;;;17.65;14.82;;;7.10;99.90;6.90;97018.00;;;;4633685;30;87173;-53
2022/04/08 00:08:51;;;;;;;17.27;14.10;;;7.10;99.90;6.90;97029.00;;;;4632899;30;88131;-53
2022/04/08 00:11:17;;;;;;;17.98;14.77;;;7.00;99.90;6.80;97014.00;;;;4634284;30;88691;-53
2022/04/08 00:13:44;;;;;;;14.45;13.00;;;7.00;99.90;6.80;97014.00;;;;4633285;30;87692;-50
2022/04/08 00:16:10;;;;;;;18.33;13.10;;;7.00;99.90;6.80;97006.00;;;;4632762;30;87135;-55
2022/04/08 00:18:39;;;;;;;18.27;13.00;;;7.00;99.90;6.90;97018.00;;;;4632543;30;87802;-53
2022/04/08 00:21:05;;;;;;;14.52;12.02;;;7.10;99.90;6.90;97014.00;;;;4630521;30;88247;-54
2022/04/08 00:23:32;;;;;;;14.60;13.00;;;7.20;99.90;6.90;97014.00;;;;4633944;30;87545;-53
2022/04/08 00:25:58;;;;;;;13.23;11.63;;;7.20;99.90;7.00;97010.00;;;;4634385;30;87079;-55
2022/04/08 00:28:24;;;;;;;14.93;11.65;;;7.20;99.90;7.00;97017.00;;;;4632720;30;87791;-55
2022/04/08 00:30:50;;;;;;;13.88;11.48;;;7.20;99.90;7.10;97014.00;;;;4632554;30;87400;-54
2022/04/08 00:33:16;;;;;;;13.15;10.57;;;7.30;99.90;7.10;97013.00;;;;4636770;30;87329;-51
2022/04/08 00:35:42;;;;;;;12.77;11.18;;;7.30;99.90;7.00;97010.00;;;;4632722;30;87126;-54
2022/04/08 00:38:09;;;;;;;13.23;10.70;;;7.30;99.90;7.00;97010.00;;;;4632750;30;86962;-52
2022/04/08 00:40:36;;;;;;;14.70;10.52;;;7.30;99.90;7.00;97011.00;;;;4632785;30;86963;-56
2022/04/08 00:43:17;;;;;;;13.77;10.50;;;7.30;99.90;7.00;97012.00;;;;4633483;30;87031;-55
2022/04/08 00:45:44;;;;;;;12.20;10.10;;;7.20;99.90;6.90;97014.00;;;;4632618;30;87995;-56
2022/04/08 00:48:11;;;;;;;14.77;10.93;;;7.20;99.90;7.00;97010.00;;;;4633359;30;87621;-56
2022/04/08 00:50:43;;;;;;;14.43;9.90;;;7.20;99.90;6.90;97019.00;;;;4633216;30;87368;-54
2022/04/08 00:53:10;;;;;;;12.88;10.35;;;7.20;99.90;6.90;97009.00;;;;4634028;30;87051;-55
2022/04/08 00:55:38;;;;;;;11.70;10.10;;;7.10;99.90;6.90;97007.00;;;;4632511;30;87995;-54
2022/04/08 00:58:05;;;;;;;12.90;9.68;;;7.10;99.90;6.90;97014.00;;;;4632288;30;87851;-53
2022/04/08 01:00:37;;;;;;;11.32;9.95;;;7.10;99.90;6.90;97006.00;;;;4632239;30;87666;-54
2022/04/08 01:03:07;;;;;;;15.10;9.98;;;7.10;99.90;6.90;97008.00;;;;4633856;30;86243;-56
2022/04/08 01:05:33;;;;;;;11.52;9.55;;;7.10;99.90;6.90;97014.00;;;;4632679;30;87190;-55
2022/04/08 01:08:00;;;;;;;10.63;9.38;;;7.20;99.90;6.90;97006.00;;;;4632075;30;87689;-52
2022/04/08 01:10:26;;;;;;;15.43;9.50;;;7.10;99.90;6.90;97012.00;;;;4632029;30;88117;-59
2022/04/08 01:12:52;;;;;;;15.50;9.07;;;7.10;99.90;6.90;97011.00;;;;4634617;30;87111;-60
2022/04/08 01:15:21;;;;;;;11.27;8.82;;;7.10;99.90;6.80;97007.00;;;;4631475;30;88067;-58
2022/04/08 01:17:48;;;;;;;11.38;8.30;;;7.10;99.90;6.80;97008.00;;;;4660833;30;87600;-53
2022/04/08 01:20:16;;;;;;;13.25;8.70;;;7.00;99.90;6.80;97000.00;;;;4632851;30;88532;-59
2022/04/08 01:22:43;;;;;;;12.32;9.15;;;7.10;99.90;6.90;97006.00;;;;4632946;30;87097;-59
2022/04/08 01:25:11;;;;;;;14.07;8.90;;;7.10;99.90;6.90;97001.00;;;;4632288;30;87180;-54
2022/04/08 01:27:39;;;;;;;12.90;8.15;;;7.10;99.90;6.90;97007.00;;;;4633416;30;86744;-55
2022/04/08 01:30:08;;;;;;;11.18;8.32;;;7.10;99.90;6.90;97010.00;;;;4632647;30;87802;-54
2022/04/08 01:32:36;;;;;;;12.57;8.77;;;7.10;99.90;6.90;97015.00;;;;4633581;30;87619;-60
2022/04/08 01:35:03;;;;;;;10.23;8.07;;;7.10;99.90;6.90;97007.00;;;;4632444;30;88108;-59
2022/04/08 01:37:30;;;;;;;14.98;8.77;;;7.10;99.90;6.80;97007.00;;;;4633049;30;87795;-58
2022/04/08 01:39:56;;;;;;;12.45;8.73;;;7.10;99.90;6.80;97013.00;;;;4633157;30;87390;-58
2022/04/08 01:42:24;;;;;;;11.07;8.48;;;7.10;99.90;6.80;97027.00;;;;4632010;30;87650;-59
2022/04/08 01:44:53;;;;;;;13.55;8.13;;;7.10;99.90;6.80;97016.00;;;;4632494;30;87274;-58
2022/04/08 01:47:19;;;;;;;14.75;7.97;;;7.00;99.90;6.80;97014.00;;;;4633084;30;87481;-61
2022/04/08 01:49:46;;;;;;;11.35;8.60;;;7.00;99.90;6.70;97013.00;;;;4633122;30;87573;-60
2022/04/08 01:52:13;;;;;;;10.70;8.20;;;7.00;99.90;6.70;97011.00;;;;4618646;30;86263;-54
2022/04/08 01:54:39;;;;;;;11.55;7.78;;;6.90;99.90;6.80;97006.00;;;;4632658;30;87042;-59
2022/04/08 01:57:05;;;;;;;9.77;8.02;;;7.00;99.90;6.80;97012.00;;;;4632669;30;87539;-59
2022/04/08 01:59:31;;;;;;;11.32;7.70;;;7.00;99.90;6.70;97017.00;;;;4632129;30;88140;-59
2022/04/08 02:02:00;;;;;;;10.80;7.50;;;7.00;99.90;6.70;97007.00;;;;4632094;30;87082;-59
2022/04/08 02:04:27;;;;;;;10.27;7.15;;;6.90;99.90;6.80;97017.00;;;;4632387;30;87270;-58
2022/04/08 02:06:53;;;;;;;11.15;6.97;;;7.10;99.90;6.80;97014.00;;;;4633045;30;87027;-59
2022/04/08 02:09:19;;;;;;;8.90;6.15;;;7.10;99.90;6.90;97011.00;;;;4632718;30;87378;-58
2022/04/08 02:11:46;;;;;;;9.00;6.50;;;7.10;99.90;6.90;97013.00;;;;4631489;30;87342;-58
2022/04/08 02:14:12;;;;;;;9.70;6.45;;;7.10;99.90;6.90;97008.00;;;;4632218;30;87018;-59
2022/04/08 02:16:41;;;;;;;10.45;6.38;;;7.20;99.90;7.00;97006.00;;;;4632765;30;86902;-62
2022/04/08 02:19:07;;;;;;;10.98;6.63;;;7.20;99.90;7.00;97018.00;;;;4617504;30;87238;-60
2022/04/08 02:21:34;;;;;;;7.68;5.75;;;7.20;99.90;7.00;97017.00;;;;4632334;30;88274;-61
2022/04/08 02:24:08;;;;;;;11.00;6.40;;;7.30;99.90;7.00;97014.00;;;;4636486;30;88477;-60
2022/04/08 02:26:34;;;;;;;11.88;6.25;;;7.20;99.90;7.00;97002.00;;;;4632466;30;87190;-62
2022/04/08 02:29:01;;;;;;;9.45;5.90;;;7.20;99.90;6.90;97011.00;;;;4632459;30;88657;-62
2022/04/08 02:31:27;;;;;;;12.30;6.18;;;7.20;99.90;6.90;97006.00;;;;4632743;30;86907;-61
2022/04/08 02:33:53;;;;;;;11.65;6.65;;;7.10;99.90;6.90;97001.00;;;;4633280;30;87551;-60
2022/04/08 02:36:20;;;;;;;9.45;5.78;;;7.10;99.90;6.90;97007.00;;;;4632613;30;87864;-61
2022/04/08 02:38:46;;;;;;;11.20;6.22;;;7.10;99.90;6.90;97011.00;;;;4631975;30;87938;-59
2022/04/08 02:41:12;;;;;;;12.30;6.45;;;7.20;99.90;6.90;97005.00;;;;4636012;30;86677;-59
2022/04/08 02:43:38;;;;;;;9.27;6.05;;;7.20;99.90;6.90;97014.00;;;;4632173;30;87183;-60
2022/04/08 02:46:04;;;;;;;9.05;6.13;;;7.20;99.90;6.90;97008.00;;;;4632613;30;87764;-62
2022/04/08 02:48:30;;;;;;;12.75;6.30;;;7.20;99.90;6.90;97009.00;;;;4631416;30;88367;-62
2022/04/08 02:50:56;;;;;;;11.48;5.57;;;7.20;99.90;6.90;97014.00;;;;4632125;30;87670;-62
2022/04/08 02:53:22;;;;;;;11.25;6.13;;;7.10;99.90;6.90;97015.00;;;;4632247;30;87144;-61
2022/04/08 02:55:49;;;;;;;10.05;5.45;;;7.10;99.90;6.90;97008.00;;;;4633984;30;88070;-61
2022/04/08 02:58:15;;;;;;;9.82;5.50;;;7.10;99.90;6.90;97018.00;;;;4634572;30;87861;-61
2022/04/08 03:00:41;;;;;;;11.25;6.43;;;7.10;99.90;6.90;97029.00;;;;4634144;30;88294;-61
2022/04/08 03:03:07;;;;;;;11.05;5.50;;;7.20;99.90;6.90;97019.00;;;;4634975;30;87099;-61
2022/04/08 03:05:33;;;;;;;10.05;6.10;;;7.20;99.90;6.90;97022.00;;;;4635198;30;88006;-61
2022/04/08 03:07:59;;;;;;;12.50;6.35;;;7.20;99.90;7.00;97041.00;;;;4634425;30;87096;-60
2022/04/08 03:10:25;;;;;;;13.73;5.47;;;7.30;99.90;7.00;97023.00;;;;4635148;30;87052;-59
2022/04/08 03:12:52;;;;;;;8.27;6.10;;;7.20;99.90;7.10;97030.00;;;;4634029;30;88042;-59
2022/04/08 03:15:20;;;;;;;9.52;5.93;;;7.20;99.90;7.10;97035.00;;;;4633368;30;88395;-59
2022/04/08 03:17:46;;;;;;;12.57;6.20;;;7.30;99.90;7.10;97027.00;;;;4633943;30;87303;-59
2022/04/08 03:20:12;;;;;;;10.23;5.88;;;7.30;99.90;7.30;97023.00;;;;4633340;30;87654;-59
2022/04/08 03:22:38;;;;;;;12.23;6.45;;;7.50;99.90;7.30;97035.00;;;;4634878;30;87702;-59
2022/04/08 03:25:05;;;;;;;12.63;6.60;;;7.40;99.90;7.30;97031.00;;;;4634807;30;88090;-59
2022/04/08 03:27:32;;;;;;;12.98;6.00;;;7.50;99.90;7.30;97029.00;;;;4634079;30;87310;-59
2022/04/08 03:29:58;;;;;;;13.57;6.30;;;7.40;99.90;7.40;97015.00;;;;4633509;30;86451;-61
2022/04/08 03:32:24;;;;;;;8.25;5.38;;;7.50;99.90;7.40;97026.00;;;;4635452;30;86995;-61
2022/04/08 03:34:57;;;;;;;12.88;6.40;;;7.50;99.90;7.50;97020.00;;;;4634241;30;87631;-61
2022/04/08 03:37:27;;;;;;;11.00;5.65;;;7.60;99.90;7.60;97013.00;;;;4633745;30;88083;-61
2022/04/08 03:39:53;;;;;;;14.50;5.93;;;7.60;99.90;7.60;97027.00;;;;4634408;30;87500;-62
2022/04/08 03:42:20;;;;;;;9.13;5.72;;;7.70;99.90;7.70;97019.00;;;;4634489;30;87062;-63
2022/04/08 03:44:46;;;;;;;8.93;6.13;;;7.80;99.90;7.90;97027.00;;;;4634402;30;88410;-63
2022/04/08 03:47:12;;;;;;;13.73;5.70;;;7.90;99.90;8.10;97026.00;;;;4634507;30;87264;-60
2022/04/08 03:49:38;;;;;;;12.95;5.80;;;8.00;99.90;8.20;97028.00;;;;4634429;30;87426;-62
2022/04/08 03:52:08;;;;;;;10.18;5.55;;;8.10;99.90;8.30;97033.00;;;;4635408;30;87029;-62
2022/04/08 03:54:39;;;;;;;12.40;6.00;;;8.20;99.90;8.40;97035.00;;;;4634015;30;87403;-64
2022/04/08 03:57:06;;;;;;;9.77;5.70;;;8.20;99.90;8.50;97026.00;;;;4634300;30;87146;-62
2022/04/08 03:59:32;;;;;;;10.35;5.82;;;8.30;99.90;8.60;97036.00;;;;4634144;30;87475;-61
2022/04/08 04:02:01;;;;;;;9.00;5.70;;;8.40;99.90;8.90;97035.00;;;;4633322;30;88472;-63
2022/04/08 04:04:27;;;;;;;8.25;5.05;;;8.60;99.90;9.10;97037.00;;;;4633549;30;89226;-62
2022/04/08 04:06:53;;;;;;;14.70;5.88;;;8.80;99.90;9.40;97034.00;;;;4633798;30;87394;-62
2022/04/08 04:09:19;;;;;;;9.07;5.18;;;8.90;99.90;9.50;97029.00;;;;4634193;30;87568;-62
2022/04/08 04:11:45;;;;;;;7.60;5.00;;;9.10;99.90;9.60;97039.00;;;;4635370;30;87136;-63
2022/04/08 04:14:12;;;;;;;12.60;5.65;;;9.20;99.90;9.50;97032.00;;;;4633332;30;88812;-61
2022/04/08 04:16:38;;;;;;;9.50;5.93;;;9.20;99.90;9.50;97034.00;;;;4633823;30;87688;-61
2022/04/08 04:19:04;;;;;;;10.30;5.05;;;9.20;99.90;9.30;97028.00;;;;4619388;30;86369;-62
2022/04/08 04:21:32;;;;;;;10.30;5.07;;;9.10;99.90;9.30;97049.00;;;;4633448;30;87376;-62
2022/04/08 04:23:58;;;;;;;10.48;4.65;;;9.20;99.90;9.30;97043.00;;;;4625772;30;88693;-63
2022/04/08 04:26:24;;;;;;;10.23;5.20;;;9.20;99.90;9.30;97049.00;;;;4633364;30;88196;-61
2022/04/08 04:28:50;;;;;;;14.88;5.65;;;9.20;99.90;9.30;97047.00;;;;4633876;30;87555;-62
2022/04/08 04:31:17;;;;;;;8.65;4.78;;;9.20;99.90;9.30;97039.00;;;;4633885;30;87189;-61
2022/04/08 04:33:43;;;;;;;9.57;4.45;;;9.10;99.90;9.20;97042.00;;;;4635008;30;87795;-60
2022/04/08 04:36:11;;;;;;;8.15;4.97;;;9.10;99.90;9.20;97042.00;;;;4632128;30;87402;-60
2022/04/08 04:38:37;;;;;;;8.27;4.65;;;9.10;99.90;9.20;97043.00;;;;4633602;30;87495;-59
2022/04/08 04:41:03;;;;;;;9.45;5.90;;;9.20;99.90;9.20;97042.00;;;;4633368;30;87076;-59
2022/04/08 04:43:29;;;;;;;8.93;4.95;;;9.10;99.90;9.10;97052.00;;;;4633160;30;86810;-60
2022/04/08 04:45:55;;;;;;;10.23;5.07;;;9.10;99.90;9.10;97049.00;;;;4633809;30;86902;-59
2022/04/08 04:48:22;;;;;;;9.02;5.25;;;9.10;99.90;9.10;97045.00;;;;4634065;30;86977;-60
2022/04/08 04:50:49;;;;;;;10.38;5.40;;;9.10;99.90;9.10;97050.00;;;;4633085;30;88309;-59
2022/04/08 04:53:15;;;;;;;9.75;5.03;;;9.10;99.90;9.10;97048.00;;;;4633655;30;88342;-59
2022/04/08 04:55:42;;;;;;;11.48;5.20;;;9.10;99.90;9.10;97039.00;;;;4632534;30;88615;-62
2022/04/08 04:58:08;;;;;;;11.05;4.82;;;9.10;99.90;9.20;97047.00;;;;4633695;30;87373;-63
2022/04/08 05:00:34;;;;;;;10.98;5.32;;;9.20;99.90;9.20;97042.00;;;;4632252;30;87629;-62
2022/04/08 05:03:01;;;;;;;11.95;5.53;;;9.20;99.90;9.20;97042.00;;;;4632745;30;88136;-64
2022/04/08 05:05:27;;;;;;;10.07;5.25;;;9.20;99.90;9.30;97038.00;;;;4633274;30;87901;-61
2022/04/08 05:07:53;;;;;;;9.23;5.13;;;9.20;99.90;9.30;97037.00;;;;4633210;30;86366;-62
2022/04/08 05:10:19;;;;;;;9.88;4.80;;;9.30;99.90;9.40;97032.00;;;;4631934;30;87200;-61
2022/04/08 05:12:47;;;;;;;11.57;5.78;;;9.30;99.90;9.50;97053.00;;;;4631765;30;88407;-61
2022/04/08 05:15:13;;;;;;;13.98;5.20;;;9.50;99.90;9.70;97040.00;;;;4631649;30;88476;-60
2022/04/08 05:17:39;;;;;;;13.88;5.72;;;9.60;99.90;9.80;97031.00;;;;4631972;30;87356;-64
2022/04/08 05:20:07;;;;;;;8.23;5.03;;;9.80;99.90;10.00;97029.00;;;;4631845;30;87775;-65
2022/04/08 05:22:34;;;;;;;11.23;5.30;;;9.90;99.90;10.20;97039.00;;;;4632637;30;87646;-62
2022/04/08 05:25:01;;;;;;;10.45;5.20;;;10.00;99.90;10.30;97040.00;;;;4637448;30;88475;-63
2022/04/08 05:27:41;;;;;;;13.18;5.63;;;10.10;99.90;10.40;97042.00;;;;4633125;30;87271;-60
2022/04/08 05:30:12;;;;;;;12.55;5.22;;;10.20;99.90;10.60;97042.00;;;;4632565;30;87680;-62
2022/04/08 05:32:42;;;;;;;9.27;5.47;;;10.50;99.90;10.80;97042.00;;;;4635289;30;87991;-61
2022/04/08 05:35:09;;;;;;;10.98;5.00;;;10.70;99.90;11.00;97030.00;;;;4632780;30;87948;-61
2022/04/08 05:37:42;;;;;;;13.05;5.53;;;10.90;99.90;11.20;97040.00;;;;4633132;30;87095;-63
2022/04/08 05:40:14;;;;;;;12.05;5.30;;;11.10;99.90;11.20;97033.00;;;;4631958;30;88091;-61
2022/04/08 05:42:45;;;;;;;11.35;6.00;;;11.00;99.90;11.20;97034.00;;;;4632964;30;87575;-61
2022/04/08 05:45:12;;;;;;;13.75;5.72;;;11.00;99.90;11.10;97036.00;;;;4631950;30;87627;-60
2022/04/08 05:47:39;;;;;;;8.93;5.53;;;10.90;99.90;11.10;97031.00;;;;4632006;30;87127;-61
2022/04/08 05:50:07;;;;;;;11.13;5.60;;;11.00;99.90;11.10;97025.00;;;;4632692;30;89282;-62
2022/04/08 05:52:33;;;;;;;12.35;5.72;;;10.90;99.90;11.10;97031.00;;;;4633116;30;87627;-60
2022/04/08 05:54:59;;;;;;;10.93;5.43;;;10.90;99.90;11.20;97027.00;;;;4630752;30;87545;-61
2022/04/08 05:57:25;;;;;;;7.07;4.88;;;11.10;99.90;11.30;97022.00;;;;4632236;30;86413;-64
2022/04/08 05:59:59;;;;;;;8.68;5.90;;;11.10;99.90;11.50;97018.00;;;;4630912;30;87171;-58
2022/04/08 06:02:25;;;;;;;7.78;5.40;;;11.30;99.90;11.70;97022.00;;;;4630735;30;88754;-64
2022/04/08 06:04:51;;;;;;;9.85;5.28;;;11.50;99.90;11.90;97030.00;;;;4627419;30;88701;-63
2022/04/08 06:07:18;;;;;;;10.80;5.63;;;11.60;99.90;12.10;97032.00;;;;4631245;30;87188;-61
2022/04/08 06:09:44;;;;;;;14.55;5.60;;;11.90;99.90;12.20;97024.00;;;;4631190;30;87193;-62
2022/04/08 06:12:10;;;;;;;9.55;5.57;;;12.00;99.90;12.20;97037.00;;;;4631593;30;87080;-60
2022/04/08 06:14:36;;;;;;;13.45;5.57;;;12.00;99.90;12.20;97027.00;;;;4630316;30;88466;-65
2022/04/08 06:17:02;;;;;;;12.57;5.57;;;11.90;99.90;12.00;97034.00;;;;4631189;30;87089;-62
2022/04/08 06:19:28;;;;;;;14.73;6.07;;;11.80;99.90;12.10;97032.00;;;;4631825;30;87221;-61
2022/04/08 06:21:55;;;;;;;11.25;5.97;;;11.90;99.90;12.20;97036.00;;;;4631324;30;87375;-62
2022/04/08 06:24:21;;;;;;;16.88;6.32;;;11.90;99.90;12.20;97031.00;;;;4630356;30;87156;-61
2022/04/08 06:26:47;;;;;;;10.50;6.10;;;12.00;99.90;12.20;97030.00;;;;4627689;30;87135;-63
2022/04/08 06:29:13;;;;;;;9.23;5.30;;;11.90;99.90;12.20;97027.00;;;;4614834;30;88842;-60
2022/04/08 06:31:39;;;;;;;10.23;6.03;;;11.90;99.90;12.30;97041.00;;;;4619100;30;89024;-61
2022/04/08 06:34:05;;;;;;;10.07;5.38;;;12.00;99.90;12.30;97039.00;;;;4637027;30;88499;-63
2022/04/08 06:36:31;;;;;;;12.88;6.35;;;12.00;99.90;12.30;97044.00;;;;4633052;30;88162;-61
2022/04/08 06:38:57;;;;;;;17.60;6.50;;;12.10;99.90;12.40;97040.00;;;;4634020;30;87220;-59
2022/04/08 06:41:23;;;;;;;16.63;6.85;;;12.20;99.90;12.30;97042.00;;;;4633361;30;88085;-59
2022/04/08 06:43:50;;;;;;;10.60;6.50;;;12.10;99.90;12.40;97047.00;;;;4634103;30;87357;-60
2022/04/08 06:46:16;;;;;;;12.30;6.40;;;12.20;99.90;12.40;97036.00;;;;4634823;30;86936;-60
2022/04/08 06:48:42;;;;;;;17.45;6.50;;;12.10;99.90;12.40;97033.00;;;;4634491;30;87617;-60
2022/04/08 06:51:09;;;;;;;11.88;6.25;;;12.10;99.90;12.40;97039.00;;;;4634149;30;87767;-59
2022/04/08 06:53:35;;;;;;;16.38;7.07;;;12.20;99.90;12.40;97040.00;;;;4633894;30;88159;-60
2022/04/08 06:56:02;;;;;;;12.70;7.13;;;12.20;99.90;12.40;97045.00;;;;4633961;30;87732;-59
2022/04/08 06:58:30;;;;;;;15.63;6.70;;;12.20;99.90;12.40;97042.00;;;;4646323;30;87128;-59
2022/04/08 07:00:56;;;;;;;11.75;7.05;;;12.20;99.90;12.50;97043.00;;;;4633438;30;87732;-60
2022/04/08 07:03:23;;;;;;;13.57;6.85;;;12.20;99.90;12.50;97036.00;;;;4633121;30;88459;-59
2022/04/08 07:05:49;;;;;;;12.98;7.13;;;12.20;99.90;12.40;97038.00;;;;4633675;30;87006;-59
2022/04/08 07:08:15;;;;;;;13.20;7.00;;;12.10;99.90;12.40;97048.00;;;;4634573;30;87567;-59
2022/04/08 07:10:41;;;;;;;15.80;7.10;;;12.20;99.90;12.40;97043.00;;;;4634339;30;87936;-59
2022/04/08 07:13:08;;;;;;;13.18;6.60;;;12.10;99.90;12.40;97054.00;;;;4633425;30;88402;-59
2022/04/08 07:15:35;;;;;;;22.15;7.65;;;12.10;99.90;12.50;97043.00;;;;4629726;30;87273;-59
2022/04/08 07:18:04;;;;;;;14.30;6.90;;;12.20;99.90;12.50;97053.00;;;;4633806;30;88030;-58
2022/04/08 07:20:31;;;;;;;15.68;7.30;;;12.20;99.90;12.60;97039.00;;;;4632501;30;88630;-59
2022/04/08 07:23:01;;;;;;;13.65;6.85;;;12.30;99.90;12.50;97057.00;;;;4631801;30;88966;-59
2022/04/08 07:25:29;;;;;;;13.90;6.82;;;12.30;99.90;12.50;97038.00;;;;4634840;30;87027;-59
2022/04/08 07:28:01;;;;;;;16.02;7.60;;;12.30;99.90;12.60;97050.00;;;;4634226;30;87064;-58
2022/04/08 07:30:28;;;;;;;19.00;7.18;;;12.30;99.90;12.70;97054.00;;;;4633042;30;87735;-59
2022/04/08 07:32:54;;;;;;;13.77;6.47;;;12.50;99.90;12.70;97051.00;;;;4635965;30;88499;-57
2022/04/08 07:35:25;;;;;;;17.15;6.97;;;12.50;99.90;12.70;97048.00;;;;4634109;30;86302;-61
2022/04/08 07:37:53;;;;;;;10.67;6.37;;;12.50;99.90;12.80;97054.00;;;;4633814;30;87310;-59
2022/04/08 07:40:20;;;;;;;15.98;6.68;;;12.60;99.90;12.80;97057.00;;;;4632339;30;87764;-61
2022/04/08 07:42:46;;;;;;;15.35;6.63;;;12.60;99.90;12.90;97048.00;;;;4655827;30;88052;-58
2022/04/08 07:45:13;;;;;;;14.63;6.47;;;12.80;99.90;12.90;97048.00;;;;4632727;30;87132;-60
2022/04/08 07:47:39;;;;;;;11.32;6.65;;;12.80;99.90;13.00;97054.00;;;;4633755;30;87149;-60
2022/04/08 07:50:13;;;;;;;17.90;6.93;;;12.80;99.90;13.00;97051.00;;;;4633857;30;87249;-59
2022/04/08 07:52:41;;;;;;;13.40;6.25;;;12.80;99.90;13.00;97054.00;;;;4633499;30;88562;-58
2022/04/08 07:55:08;;;;;;;13.07;6.18;;;12.90;99.90;13.10;97050.00;;;;4634024;30;87051;-59
2022/04/08 07:57:46;;;;;;;13.60;5.70;;;12.80;99.90;13.00;97039.00;;;;4633246;30;87070;-60
2022/04/08 08:00:15;;;;;;;11.55;5.78;;;12.80;99.90;12.90;97032.00;;;;4629007;30;86935;-59
2022/04/08 08:02:43;;;;;;;13.10;6.28;;;12.70;99.90;13.00;97046.00;;;;4630327;30;88021;-60
2022/04/08 08:05:09;;;;;;;15.70;7.05;;;12.80;99.90;13.00;97049.00;;;;4631532;30;88596;-59
2022/04/08 08:07:50;;;;;;;12.20;6.43;;;12.80;99.90;13.10;97033.00;;;;4631129;30;89446;-59
2022/04/08 08:10:28;;;;;;;14.95;5.82;;;12.90;99.90;13.20;97044.00;;;;4632510;30;88598;-59
2022/04/08 08:12:55;;;;;;;14.30;6.25;;;13.00;99.90;13.20;97037.00;;;;4631909;30;87362;-59
2022/04/08 08:15:23;;;;;;;10.68;6.05;;;13.00;99.90;13.20;97037.00;;;;4631784;30;87059;-57
2022/04/08 08:17:50;;;;;;;12.60;5.68;;;13.00;99.90;13.40;97031.00;;;;4631424;30;87176;-62
2022/04/08 08:20:20;;;;;;;16.27;6.07;;;13.10;99.90;13.40;97038.00;;;;4632058;30;88721;-60
2022/04/08 08:22:47;;;;;;;12.75;6.03;;;13.20;99.90;13.40;97029.00;;;;4629398;30;88587;-59
2022/04/08 08:25:14;;;;;;;12.68;6.20;;;13.20;99.90;13.30;97013.00;;;;4634370;30;86422;-59
2022/04/08 08:27:44;;;;;;;11.75;5.53;;;13.10;99.90;13.30;97033.00;;;;4632291;30;87262;-57
2022/04/08 08:30:15;;;;;;;11.20;5.45;;;13.10;99.90;13.50;97029.00;;;;4631617;30;87860;-60
2022/04/08 08:32:47;;;;;;;15.32;6.32;;;13.20;99.60;13.70;97024.00;;;;4634519;30;88173;-59
2022/04/08 08:35:19;;;;;;;16.08;6.18;;;13.40;99.70;13.70;97034.00;;;;4632496;30;87216;-59
2022/04/08 08:37:48;;;;;;;15.93;7.07;;;13.50;99.80;13.70;97032.00;;;;4632670;30;87046;-60
2022/04/08 08:40:16;;;;;;;14.75;7.03;;;13.40;99.90;13.70;97021.00;;;;4632310;30;87701;-58
2022/04/08 08:42:43;;;;;;;11.90;7.63;;;13.40;99.40;13.70;97033.00;;;;4631740;30;87284;-54
2022/04/08 08:45:11;;;;;;;10.18;7.35;;;13.40;99.70;13.80;97021.00;;;;4632462;30;87086;-54
2022/04/08 08:47:38;;;;;;;17.38;7.80;;;13.50;99.90;13.90;97027.00;;;;4630013;30;88317;-55
2022/04/08 08:50:07;;;;;;;11.23;7.35;;;13.60;99.60;13.90;97020.00;;;;4632301;30;86989;-55
2022/04/08 08:52:34;;;;;;;12.13;7.63;;;13.60;99.10;13.90;97024.00;;;;4629814;30;87064;-56
2022/04/08 08:55:07;;;;;;;25.10;9.10;;;13.60;99.20;13.90;97008.00;;;;4632113;30;87374;-55
2022/04/08 08:57:34;;;;;;;11.15;7.78;;;13.60;99.40;14.00;97018.00;;;;4630506;30;87995;-55
2022/04/08 09:00:12;;;;;;;17.67;8.43;;;13.80;98.70;14.00;97014.00;;;;4630044;30;88701;-58
2022/04/08 09:02:40;;;;;;;19.33;8.63;;;13.80;98.60;14.10;97004.00;;;;4628514;30;88485;-59
2022/04/08 09:05:26;;;;;;;13.85;7.55;;;13.80;98.70;14.00;97005.00;;;;4630951;30;87810;-61
2022/04/08 09:08:01;;;;;;;13.25;8.60;;;13.80;98.60;13.90;96998.00;;;;4631391;30;87835;-60
2022/04/08 09:10:33;;;;;;;16.73;8.95;;;13.70;98.70;13.90;96984.00;;;;4631033;30;88687;-59
2022/04/08 09:13:00;;;;;;;22.52;8.25;;;13.60;98.50;14.00;97003.00;;;;4630385;30;89007;-61
2022/04/08 09:15:27;;;;;;;13.50;7.85;;;13.70;98.30;14.00;96980.00;;;;4629028;30;87223;-60
2022/04/08 09:17:55;;;;;;;14.27;8.20;;;13.70;98.20;14.00;96991.00;;;;4629903;30;88549;-59
2022/04/08 09:20:21;;;;;;;13.93;8.45;;;13.80;98.60;14.00;96977.00;;;;4629747;30;88348;-59
2022/04/08 09:22:55;;;;;;;13.90;8.05;;;13.80;98.40;14.00;96992.00;;;;4630628;30;88464;-59
2022/04/08 09:25:26;;;;;;;15.68;8.65;;;13.70;98.10;14.00;96990.00;;;;4632210;30;87065;-60
2022/04/08 09:27:58;;;;;;;15.87;9.50;;;13.70;98.40;14.10;96985.00;;;;4630885;30;87058;-59
2022/04/08 09:30:24;;;;;;;14.48;8.02;;;13.80;98.30;14.10;96993.00;;;;4629587;30;88721;-55
2022/04/08 09:32:51;;;;;;;14.50;7.65;;;13.80;97.10;14.00;96971.00;;;;4636525;30;87459;-59
2022/04/08 09:35:24;;;;;;;9.88;7.82;;;13.70;97.10;14.00;96985.00;;;;4632150;30;87272;-59
2022/04/08 09:38:01;;;;;;;13.82;8.35;;;13.80;97.10;14.00;96977.00;;;;4632363;30;87345;-60
2022/04/08 09:40:42;;;;;;;14.93;8.20;;;13.80;96.90;14.00;96982.00;;;;4632821;30;87060;-57
2022/04/08 09:43:09;;;;;;;14.57;7.40;;;13.80;97.60;14.10;96985.00;;;;4630920;30;87929;-59
2022/04/08 09:45:38;;;;;;;12.05;7.25;;;13.90;96.90;14.10;96984.00;;;;4631249;30;88846;-58
2022/04/08 09:48:07;;;;;;;16.48;7.50;;;13.80;97.60;14.10;96986.00;;;;4627585;30;89577;-58
2022/04/08 09:50:36;;;;;;;17.48;7.90;;;13.90;97.60;14.20;96984.00;;;;4631409;30;87923;-56
2022/04/08 09:53:05;;;;;;;14.95;7.05;;;14.00;97.20;14.10;96980.00;;;;4630853;30;87468;-58
2022/04/08 09:55:34;;;;;;;15.90;7.10;;;13.80;98.00;14.20;96981.00;;;;4630672;30;87048;-61
2022/04/08 09:58:05;;;;;;;16.27;6.90;;;13.90;97.80;14.30;96970.00;;;;4631968;30;88070;-58
2022/04/08 10:00:33;;;;;;;11.45;6.25;;;14.00;97.80;14.30;96976.00;;;;4631727;30;87790;-59
2022/04/08 10:03:00;;;;;;;14.10;6.32;;;14.00;97.40;14.20;96977.00;;;;4630208;30;87161;-59
2022/04/08 10:05:27;;;;;;;21.48;6.68;;;13.90;97.20;14.30;96974.00;;;;4616048;30;86499;-64
2022/04/08 10:07:56;;;;;;;11.05;5.90;;;14.10;97.40;14.20;96979.00;;;;4631444;30;87150;-62
2022/04/08 10:10:31;;;;;;;13.80;6.35;;;14.00;97.70;14.20;96988.00;;;;4629629;30;87627;-61
2022/04/08 10:13:32;;;;;;;7.45;5.30;;;13.90;97.80;14.10;96989.00;;;;4630968;30;88518;-62
2022/04/08 10:16:01;;;;;;;10.68;5.75;;;13.90;98.50;14.10;96959.00;;;;4626058;30;87099;-61
2022/04/08 10:18:39;;;;;;;8.05;4.90;;;13.90;98.90;14.10;96971.00;;;;4630610;30;86883;-61
2022/04/08 10:21:05;;;;;;;9.63;5.70;;;13.90;98.90;14.30;96970.00;;;;4630433;30;87602;-62
2022/04/08 10:23:38;;;;;;;11.98;5.90;;;14.00;98.50;14.40;96962.00;;;;4628545;30;88268;-61
2022/04/08 10:26:15;;;;;;;9.80;5.45;;;14.20;98.30;14.60;96965.00;;;;4630689;30;87193;-64
2022/04/08 10:28:41;;;;;;;13.23;6.18;;;14.40;98.10;14.70;96963.00;;;;4629479;30;87491;-60
2022/04/08 10:31:27;;;;;;;11.90;6.68;;;14.40;98.10;14.70;96960.00;;;;4626775;30;88925;-59
2022/04/08 10:33:53;;;;;;;9.52;5.90;;;14.40;98.30;14.70;96974.00;;;;4632318;30;88457;-59
2022/04/08 10:36:31;;;;;;;14.95;6.15;;;14.40;98.60;14.80;96962.00;;;;4630801;30;87294;-59
2022/04/08 10:39:14;;;;;;;13.73;5.20;;;14.50;98.20;14.70;96954.00;;;;4631219;30;88007;-64
2022/04/08 10:41:58;;;;;;;12.52;5.47;;;14.50;98.20;14.60;96951.00;;;;4630649;30;87022;-61
2022/04/08 10:44:39;;;;;;;11.15;5.38;;;14.40;98.80;14.60;96961.00;;;;4629019;30;87466;-62
2022/04/08 10:47:14;;;;;;;8.38;5.38;;;14.30;99.10;14.60;96956.00;;;;4629132;30;87678;-61
2022/04/08 10:50:04;;;;;;;11.90;5.90;;;14.40;99.10;14.70;96946.00;;;;4630519;30;88266;-63
2022/04/08 10:52:39;;;;;;;12.55;5.40;;;14.40;99.00;14.60;96949.00;;;;4631396;30;88441;-60
2022/04/08 10:55:07;;;;;;;12.50;5.25;;;14.20;99.50;14.50;96937.00;;;;4630521;30;88719;-61
2022/04/08 10:57:45;;;;;;;13.93;6.63;;;14.20;99.50;14.30;96963.00;;;;4632001;30;87230;-62
2022/04/08 11:00:18;;;;;;;9.60;5.60;;;14.10;99.90;14.10;96951.00;;;;4630325;30;87226;-62